Time;durP1;ratioP1;P1;durP2;ratioP2;P2;SDS_P1;SDS_P2;PMS_P1;PMS_P2;Temp;Humidity;BMP_temperature;BMP_pressure;BME280_temperature;BME280_humidity;BME280_pressure;Samples;Min_cycle;Max_cycle;Signal;HPM_P1;HPM_P2
2022/08/31 00:05:28;;;;;;;8.32;3.22;;;;;;;;;;5009249;28;20584;-70
2022/08/31 00:07:54;;;;;;;8.70;3.28;;;;;;;;;;5008795;28;20026;-69
2022/08/31 00:10:20;;;;;;;6.55;3.42;;;;;;;;;;5008706;28;20447;-70
2022/08/31 00:12:48;;;;;;;6.85;3.42;;;;;;;;;;5008624;28;20477;-69
2022/08/31 00:15:17;;;;;;;10.02;3.45;;;;;;;;;;5008629;28;20109;-69
2022/08/31 00:17:43;;;;;;;9.13;3.50;;;;;;;;;;5008555;28;20037;-69
2022/08/31 00:20:12;;;;;;;8.13;3.17;;;;;;;;;;5008728;28;20652;-70
2022/08/31 00:22:38;;;;;;;7.93;3.50;;;;;;;;;;5008976;28;20432;-70
2022/08/31 00:25:03;;;;;;;10.43;3.47;;;;;;;;;;5008630;28;20572;-70
2022/08/31 00:27:29;;;;;;;8.23;3.72;;;;;;;;;;5008191;28;20030;-70
2022/08/31 00:29:54;;;;;;;10.70;3.70;;;;;;;;;;5008348;28;20022;-71
2022/08/31 00:32:19;;;;;;;8.23;3.70;;;;;;;;;;5008387;28;20490;-70
2022/08/31 00:34:45;;;;;;;8.60;3.60;;;;;;;;;;5008523;28;20121;-71
2022/08/31 00:37:10;;;;;;;9.02;3.33;;;;;;;;;;5008370;28;20018;-70
2022/08/31 00:39:36;;;;;;;6.55;3.22;;;;;;;;;;5008219;28;20409;-71
2022/08/31 00:42:04;;;;;;;8.02;3.03;;;;;;;;;;5008464;28;20489;-70
2022/08/31 00:44:29;;;;;;;8.18;3.38;;;;;;;;;;5008131;28;20041;-70
2022/08/31 00:46:55;;;;;;;10.25;3.38;;;;;;;;;;5007876;28;20026;-70
2022/08/31 00:49:25;;;;;;;7.72;3.33;;;;;;;;;;5008167;28;20067;-71
2022/08/31 00:51:59;;;;;;;;;;;;;;;;;;5008431;28;20053;-71
2022/08/31 00:54:33;;;;;;;12.02;3.28;;;;;;;;;;5007986;28;19914;-70
2022/08/31 00:56:58;;;;;;;7.07;3.10;;;;;;;;;;5007970;28;20026;-70
2022/08/31 00:59:25;;;;;;;7.05;3.30;;;;;;;;;;5008081;28;20451;-70
2022/08/31 01:01:50;;;;;;;6.07;3.25;;;;;;;;;;5008125;28;20047;-71
2022/08/31 01:04:16;;;;;;;6.03;3.30;;;;;;;;;;5007923;28;20598;-70
2022/08/31 01:06:43;;;;;;;8.95;3.08;;;;;;;;;;5007828;28;20034;-71
2022/08/31 01:09:09;;;;;;;7.63;3.30;;;;;;;;;;5007978;28;20017;-71
2022/08/31 01:11:38;;;;;;;8.85;3.70;;;;;;;;;;5007948;28;20021;-71
2022/08/31 01:14:07;;;;;;;8.23;3.20;;;;;;;;;;4990250;28;20428;-70
2022/08/31 01:16:36;;;;;;;9.27;3.70;;;;;;;;;;5007673;28;20074;-70
2022/08/31 01:19:06;;;;;;;6.95;3.42;;;;;;;;;;5007955;28;20017;-71
2022/08/31 01:21:47;;;;;;;7.88;3.35;;;;;;;;;;4990124;28;20022;-71
2022/08/31 01:24:14;;;;;;;8.82;3.40;;;;;;;;;;5007614;28;20034;-71
2022/08/31 01:26:40;;;;;;;8.77;3.30;;;;;;;;;;5007593;28;20034;-70
2022/08/31 01:29:06;;;;;;;9.73;3.40;;;;;;;;;;5007327;28;20087;-71
2022/08/31 01:31:38;;;;;;;9.05;3.13;;;;;;;;;;4992489;28;20037;-71
2022/08/31 01:34:04;;;;;;;10.95;3.30;;;;;;;;;;5007721;28;20055;-70
2022/08/31 01:36:31;;;;;;;9.73;3.15;;;;;;;;;;5007560;28;20026;-70
2022/08/31 01:38:56;;;;;;;8.80;2.88;;;;;;;;;;5007209;28;20030;-70
2022/08/31 01:41:21;;;;;;;8.93;3.25;;;;;;;;;;5007299;28;20040;-71
2022/08/31 01:43:47;;;;;;;9.15;3.03;;;;;;;;;;5007338;28;20042;-71
2022/08/31 01:46:13;;;;;;;10.18;2.63;;;;;;;;;;5007294;28;20539;-70
2022/08/31 01:48:43;;;;;;;7.70;2.83;;;;;;;;;;5007292;28;20056;-70
2022/08/31 01:51:10;;;;;;;6.88;2.83;;;;;;;;;;5007462;28;20030;-71
2022/08/31 01:53:36;;;;;;;8.05;2.53;;;;;;;;;;5007330;28;20071;-70
2022/08/31 01:56:02;;;;;;;9.23;2.67;;;;;;;;;;5007250;28;20042;-70
2022/08/31 01:58:28;;;;;;;9.23;2.80;;;;;;;;;;5006699;28;20041;-70
2022/08/31 02:00:53;;;;;;;8.38;3.03;;;;;;;;;;5007160;28;20056;-70
2022/08/31 02:03:19;;;;;;;7.68;2.88;;;;;;;;;;5007135;28;20107;-70
2022/08/31 02:05:44;;;;;;;8.63;3.00;;;;;;;;;;5007398;28;20054;-70
2022/08/31 02:08:10;;;;;;;6.47;2.70;;;;;;;;;;5009547;28;20030;-70
2022/08/31 02:10:36;;;;;;;8.88;2.97;;;;;;;;;;5010797;28;20101;-71
2022/08/31 02:13:03;;;;;;;7.65;2.92;;;;;;;;;;5010590;28;20051;-70
2022/08/31 02:15:29;;;;;;;8.95;2.85;;;;;;;;;;5010428;28;20058;-70
2022/08/31 02:17:54;;;;;;;6.90;3.03;;;;;;;;;;5010176;28;20053;-70
2022/08/31 02:20:20;;;;;;;11.05;2.97;;;;;;;;;;5010403;28;20029;-70
2022/08/31 02:22:47;;;;;;;6.88;2.60;;;;;;;;;;5010660;28;20033;-70
2022/08/31 02:25:13;;;;;;;10.80;2.90;;;;;;;;;;5010528;28;20032;-70
2022/08/31 02:27:39;;;;;;;8.75;3.00;;;;;;;;;;5010080;28;20026;-70
2022/08/31 02:30:09;;;;;;;7.90;3.00;;;;;;;;;;5010277;28;20037;-69
2022/08/31 02:32:35;;;;;;;6.72;2.67;;;;;;;;;;5010484;28;20064;-70
2022/08/31 02:35:00;;;;;;;8.90;3.03;;;;;;;;;;5010281;28;20057;-70
2022/08/31 02:37:25;;;;;;;7.28;2.95;;;;;;;;;;5010001;28;20068;-70
2022/08/31 02:39:51;;;;;;;7.35;2.85;;;;;;;;;;5010156;28;20458;-70
2022/08/31 02:42:16;;;;;;;7.43;2.70;;;;;;;;;;5009948;28;20030;-70
2022/08/31 02:44:42;;;;;;;8.52;3.08;;;;;;;;;;5009980;28;20065;-72
2022/08/31 02:47:07;;;;;;;6.47;2.65;;;;;;;;;;5009927;28;20018;-69
2022/08/31 02:49:33;;;;;;;11.02;3.00;;;;;;;;;;5010011;28;20022;-70
2022/08/31 02:51:58;;;;;;;12.65;2.88;;;;;;;;;;5009672;28;20026;-70
2022/08/31 02:54:24;;;;;;;9.23;2.92;;;;;;;;;;5009951;28;20014;-69
2022/08/31 02:56:49;;;;;;;7.45;2.90;;;;;;;;;;5010021;28;20404;-69
2022/08/31 02:59:15;;;;;;;8.55;2.75;;;;;;;;;;5009759;28;20029;-69
2022/08/31 03:01:41;;;;;;;9.38;2.88;;;;;;;;;;5010174;28;20038;-70
2022/08/31 03:04:07;;;;;;;8.15;2.80;;;;;;;;;;5009861;28;20452;-70
2022/08/31 03:06:32;;;;;;;5.82;2.63;;;;;;;;;;5009763;28;20049;-69
2022/08/31 03:09:01;;;;;;;7.03;2.72;;;;;;;;;;5009526;28;20038;-69
2022/08/31 03:11:27;;;;;;;7.85;2.60;;;;;;;;;;5009685;28;20022;-69
2022/08/31 03:13:53;;;;;;;6.50;2.97;;;;;;;;;;5009699;28;20460;-69
2022/08/31 03:16:18;;;;;;;6.65;2.90;;;;;;;;;;5009643;28;20121;-69
2022/08/31 03:18:45;;;;;;;9.38;2.88;;;;;;;;;;5009105;28;20044;-69
2022/08/31 03:21:11;;;;;;;7.28;2.88;;;;;;;;;;5009576;28;20053;-69
2022/08/31 03:23:37;;;;;;;4.90;2.60;;;;;;;;;;5009515;28;20069;-69
2022/08/31 03:26:04;;;;;;;7.35;2.88;;;;;;;;;;5009416;28;20042;-69
2022/08/31 03:28:31;;;;;;;7.65;2.85;;;;;;;;;;5009150;28;20037;-69
2022/08/31 03:30:57;;;;;;;7.68;2.67;;;;;;;;;;5009594;28;20050;-69
2022/08/31 03:33:22;;;;;;;6.00;2.60;;;;;;;;;;5009437;28;20166;-69
2022/08/31 03:35:48;;;;;;;5.43;2.53;;;;;;;;;;5009521;28;20045;-70
2022/08/31 03:38:14;;;;;;;5.35;2.30;;;;;;;;;;5009089;28;20022;-69
2022/08/31 03:40:40;;;;;;;9.75;2.60;;;;;;;;;;5009248;28;20029;-70
2022/08/31 03:43:09;;;;;;;11.52;2.63;;;;;;;;;;5008994;28;20053;-69
2022/08/31 03:45:34;;;;;;;6.88;2.38;;;;;;;;;;5009273;28;20029;-69
2022/08/31 03:48:00;;;;;;;7.28;2.58;;;;;;;;;;5009124;28;20026;-69
2022/08/31 03:50:26;;;;;;;8.95;2.50;;;;;;;;;;5009246;28;20058;-69
2022/08/31 03:52:53;;;;;;;6.95;3.03;;;;;;;;;;5008962;28;20060;-69
2022/08/31 03:55:18;;;;;;;7.80;2.60;;;;;;;;;;5009134;28;20026;-69
2022/08/31 03:57:44;;;;;;;4.95;2.50;;;;;;;;;;5008799;28;20075;-69
2022/08/31 04:00:10;;;;;;;5.53;2.58;;;;;;;;;;4991201;28;20034;-69
2022/08/31 04:02:37;;;;;;;7.95;2.80;;;;;;;;;;5008817;28;20470;-69
2022/08/31 04:05:04;;;;;;;7.72;2.47;;;;;;;;;;5008818;28;20029;-69
2022/08/31 04:07:29;;;;;;;7.70;2.30;;;;;;;;;;5008964;28;20034;-69
2022/08/31 04:09:54;;;;;;;7.32;2.90;;;;;;;;;;5008762;28;20359;-69
2022/08/31 04:12:20;;;;;;;9.05;2.60;;;;;;;;;;5008637;28;20034;-69
2022/08/31 04:14:45;;;;;;;9.73;2.70;;;;;;;;;;5008842;28;20041;-69
2022/08/31 04:17:11;;;;;;;9.20;2.88;;;;;;;;;;5008559;28;20018;-69
2022/08/31 04:19:39;;;;;;;5.13;2.55;;;;;;;;;;5008348;28;20087;-69
2022/08/31 04:22:06;;;;;;;6.22;2.40;;;;;;;;;;5008705;28;20041;-69
2022/08/31 04:24:31;;;;;;;7.43;3.00;;;;;;;;;;5008567;28;20034;-69
2022/08/31 04:26:56;;;;;;;9.00;2.70;;;;;;;;;;5008662;28;20041;-69
2022/08/31 04:29:22;;;;;;;7.00;2.88;;;;;;;;;;5008064;28;20030;-69
2022/08/31 04:31:48;;;;;;;8.40;2.70;;;;;;;;;;5008215;28;20029;-69
2022/08/31 04:34:13;;;;;;;4.57;2.45;;;;;;;;;;5008389;28;20081;-69
2022/08/31 04:36:39;;;;;;;6.45;2.72;;;;;;;;;;5008324;28;20452;-69
2022/08/31 04:39:06;;;;;;;10.20;2.60;;;;;;;;;;5008062;28;20045;-69
2022/08/31 04:41:34;;;;;;;9.05;3.00;;;;;;;;;;5008341;28;20463;-69
2022/08/31 04:44:02;;;;;;;7.72;2.67;;;;;;;;;;5008126;28;20049;-69
2022/08/31 04:46:28;;;;;;;8.10;2.88;;;;;;;;;;5008421;28;20525;-69
2022/08/31 04:48:57;;;;;;;9.25;2.83;;;;;;;;;;5008135;28;20053;-68
2022/08/31 04:51:29;;;;;;;7.75;3.00;;;;;;;;;;5008231;28;20030;-69
2022/08/31 04:53:56;;;;;;;10.07;3.03;;;;;;;;;;5007921;28;20118;-69
2022/08/31 04:56:25;;;;;;;9.13;2.90;;;;;;;;;;5008107;28;20518;-69
2022/08/31 04:58:57;;;;;;;8.57;3.13;;;;;;;;;;5007773;28;20056;-69
2022/08/31 05:01:26;;;;;;;9.10;3.00;;;;;;;;;;5008135;28;20451;-69
2022/08/31 05:03:52;;;;;;;5.28;2.72;;;;;;;;;;5008154;28;20032;-69
2022/08/31 05:06:25;;;;;;;11.45;3.10;;;;;;;;;;5008011;28;20042;-69
2022/08/31 05:08:55;;;;;;;9.85;3.33;;;;;;;;;;5007769;28;20493;-69
2022/08/31 05:11:22;;;;;;;6.63;2.80;;;;;;;;;;5007883;28;20022;-69
2022/08/31 05:13:48;;;;;;;8.60;3.22;;;;;;;;;;5007756;28;20034;-69
2022/08/31 05:16:15;;;;;;;6.38;3.30;;;;;;;;;;5007818;28;20030;-69
2022/08/31 05:18:42;;;;;;;8.43;3.25;;;;;;;;;;5007607;28;20821;-69
2022/08/31 05:21:13;;;;;;;9.73;3.55;;;;;;;;;;5008123;28;20033;-69
2022/08/31 05:23:39;;;;;;;10.55;3.65;;;;;;;;;;5007579;28;20030;-69
2022/08/31 05:26:06;;;;;;;9.82;3.45;;;;;;;;;;5007698;28;20029;-69
2022/08/31 05:28:35;;;;;;;11.15;3.83;;;;;;;;;;5007214;28;20030;-69
2022/08/31 05:31:02;;;;;;;10.30;3.58;;;;;;;;;;5007518;28;20113;-69
2022/08/31 05:33:28;;;;;;;7.95;3.90;;;;;;;;;;5007588;28;20026;-69
2022/08/31 05:35:54;;;;;;;9.55;3.70;;;;;;;;;;4989930;28;20018;-69
2022/08/31 05:38:19;;;;;;;12.07;3.67;;;;;;;;;;5007478;28;20520;-69
2022/08/31 05:40:52;;;;;;;7.47;3.50;;;;;;;;;;5007381;28;20466;-69
2022/08/31 05:43:18;;;;;;;10.90;3.60;;;;;;;;;;5007180;28;20049;-69
2022/08/31 05:45:43;;;;;;;11.73;3.80;;;;;;;;;;5007295;28;20071;-69
2022/08/31 05:48:08;;;;;;;11.27;4.25;;;;;;;;;;5007331;28;20022;-69
2022/08/31 05:50:35;;;;;;;12.20;4.32;;;;;;;;;;5007162;28;20037;-69
2022/08/31 05:53:02;;;;;;;12.23;4.40;;;;;;;;;;5007311;28;20022;-69
2022/08/31 05:55:28;;;;;;;12.93;4.50;;;;;;;;;;5007399;28;20053;-69
2022/08/31 05:57:53;;;;;;;11.75;4.38;;;;;;;;;;5007307;28;20505;-69
2022/08/31 06:00:19;;;;;;;11.05;5.15;;;;;;;;;;4989381;28;20033;-69
2022/08/31 06:02:44;;;;;;;14.18;4.95;;;;;;;;;;5007106;28;20497;-69
2022/08/31 06:05:09;;;;;;;14.48;4.53;;;;;;;;;;5007052;28;20022;-69
2022/08/31 06:07:35;;;;;;;17.48;4.72;;;;;;;;;;5007100;28;20032;-69
2022/08/31 06:10:01;;;;;;;13.60;5.18;;;;;;;;;;5007050;28;20026;-69
2022/08/31 06:12:26;;;;;;;16.52;5.20;;;;;;;;;;5006991;28;20112;-69
2022/08/31 06:14:52;;;;;;;17.52;5.38;;;;;;;;;;5007049;28;20113;-70
2022/08/31 06:17:18;;;;;;;18.45;5.40;;;;;;;;;;5006985;28;20030;-69
2022/08/31 06:19:43;;;;;;;15.32;5.22;;;;;;;;;;5006564;28;20053;-73
2022/08/31 06:22:09;;;;;;;14.73;5.28;;;;;;;;;;5006723;28;20034;-71
2022/08/31 06:24:37;;;;;;;14.30;5.20;;;;;;;;;;5006887;28;20030;-68
2022/08/31 06:27:03;;;;;;;12.35;5.50;;;;;;;;;;5006820;28;20091;-68
2022/08/31 06:29:30;;;;;;;14.30;5.32;;;;;;;;;;5006613;28;20508;-68
2022/08/31 06:31:55;;;;;;;16.77;5.22;;;;;;;;;;5006976;28;20034;-68
2022/08/31 06:34:22;;;;;;;15.23;5.55;;;;;;;;;;5006884;28;20378;-68
2022/08/31 06:36:47;;;;;;;11.38;5.68;;;;;;;;;;5006952;28;20136;-68
2022/08/31 06:39:13;;;;;;;14.80;6.20;;;;;;;;;;5006349;28;20116;-68
2022/08/31 06:41:39;;;;;;;20.38;6.93;;;;;;;;;;5006806;28;20030;-68
2022/08/31 06:44:08;;;;;;;14.23;6.72;;;;;;;;;;5006438;28;20091;-68
2022/08/31 06:46:36;;;;;;;17.33;7.18;;;;;;;;;;5006783;28;20401;-68
2022/08/31 06:49:01;;;;;;;14.73;7.65;;;;;;;;;;5004978;28;20459;-69
2022/08/31 06:51:28;;;;;;;17.30;7.50;;;;;;;;;;5005597;28;20052;-68
2022/08/31 06:53:53;;;;;;;18.58;7.18;;;;;;;;;;5007167;28;20512;-68
2022/08/31 06:56:23;;;;;;;17.42;7.70;;;;;;;;;;5006405;28;20021;-68
2022/08/31 06:58:50;;;;;;;15.40;7.47;;;;;;;;;;4999880;28;20037;-68
2022/08/31 07:01:19;;;;;;;14.88;7.18;;;;;;;;;;5006030;28;20045;-67
2022/08/31 07:03:47;;;;;;;11.25;7.13;;;;;;;;;;5010579;28;20530;-68
2022/08/31 07:06:19;;;;;;;15.65;7.72;;;;;;;;;;5006028;28;20034;-68
2022/08/31 07:08:46;;;;;;;15.38;7.20;;;;;;;;;;5008226;28;20546;-68
2022/08/31 07:11:18;;;;;;;15.82;7.60;;;;;;;;;;5009149;28;20034;-69
2022/08/31 07:13:43;;;;;;;20.98;7.38;;;;;;;;;;5000647;28;20101;-68
2022/08/31 07:16:12;;;;;;;18.15;7.18;;;;;;;;;;4989136;28;20114;-69
2022/08/31 07:18:38;;;;;;;15.27;7.50;;;;;;;;;;4999770;28;20026;-68
2022/08/31 07:21:14;;;;;;;14.57;7.55;;;;;;;;;;5010679;28;20044;-68
2022/08/31 07:23:40;;;;;;;14.43;7.60;;;;;;;;;;4989304;28;20030;-69
2022/08/31 07:26:16;;;;;;;20.08;7.90;;;;;;;;;;4990554;28;20026;-70
2022/08/31 07:28:44;;;;;;;17.58;7.45;;;;;;;;;;4991093;28;20072;-69
2022/08/31 07:31:14;;;;;;;14.52;7.25;;;;;;;;;;5000869;28;20030;-69
2022/08/31 07:33:40;;;;;;;21.15;7.53;;;;;;;;;;5010143;28;20054;-70
2022/08/31 07:36:12;;;;;;;15.85;8.07;;;;;;;;;;5009529;28;20065;-74
2022/08/31 07:44:12;;;;;;;19.27;8.27;;;;;;;;;;5009086;28;20095;-72
2022/08/31 07:46:38;;;;;;;17.25;7.25;;;;;;;;;;5011073;28;20512;-72
2022/08/31 07:49:11;;;;;;;16.15;7.75;;;;;;;;;;5008854;28;20037;-75
2022/08/31 07:51:37;;;;;;;17.83;7.88;;;;;;;;;;5010334;28;20025;-82
2022/08/31 07:54:05;;;;;;;17.40;8.60;;;;;;;;;;5011642;28;20034;-75
2022/08/31 07:56:32;;;;;;;21.08;7.90;;;;;;;;;;5009290;28;20029;-83
2022/08/31 07:58:58;;;;;;;19.08;7.82;;;;;;;;;;5011633;28;20034;-86
2022/08/31 08:01:23;;;;;;;14.68;7.28;;;;;;;;;;5009707;28;20486;-76
2022/08/31 08:03:52;;;;;;;17.08;7.68;;;;;;;;;;5009166;28;20026;-75
2022/08/31 08:06:18;;;;;;;20.17;8.93;;;;;;;;;;5008308;28;20106;-71
2022/08/31 08:08:44;;;;;;;17.95;8.60;;;;;;;;;;5008779;28;20022;-69
2022/08/31 08:11:16;;;;;;;14.15;7.97;;;;;;;;;;5009153;28;20030;-70
2022/08/31 08:13:43;;;;;;;17.95;7.97;;;;;;;;;;5007451;28;20113;-70
2022/08/31 08:16:08;;;;;;;17.58;7.90;;;;;;;;;;5007882;28;20037;-69
2022/08/31 08:18:34;;;;;;;13.73;7.32;;;;;;;;;;5007746;28;20038;-69
2022/08/31 08:21:02;;;;;;;17.45;7.75;;;;;;;;;;4990064;28;20049;-70
2022/08/31 08:23:28;;;;;;;15.77;7.63;;;;;;;;;;5007835;28;20022;-71
2022/08/31 08:25:54;;;;;;;15.30;7.32;;;;;;;;;;5007481;28;20037;-69
2022/08/31 08:28:20;;;;;;;15.80;7.57;;;;;;;;;;5007951;28;20052;-71
2022/08/31 08:30:53;;;;;;;15.07;7.70;;;;;;;;;;5007440;28;20604;-70
2022/08/31 08:33:19;;;;;;;12.73;7.05;;;;;;;;;;5010166;28;20041;-70
2022/08/31 08:35:44;;;;;;;14.15;7.20;;;;;;;;;;4990408;28;20032;-72
2022/08/31 08:38:10;;;;;;;15.57;7.03;;;;;;;;;;5007792;28;20022;-70
2022/08/31 08:40:41;;;;;;;15.15;7.50;;;;;;;;;;4993855;28;20087;-70
2022/08/31 08:43:14;;;;;;;12.68;6.80;;;;;;;;;;4987847;28;20037;-70
2022/08/31 08:45:42;;;;;;;13.60;7.00;;;;;;;;;;4988917;28;20053;-70
2022/08/31 08:48:12;;;;;;;17.75;7.00;;;;;;;;;;4988686;28;20113;-70
2022/08/31 08:50:40;;;;;;;15.15;7.15;;;;;;;;;;4989426;28;20507;-70
2022/08/31 08:53:09;;;;;;;15.50;6.82;;;;;;;;;;4988837;28;20034;-69
2022/08/31 08:55:39;;;;;;;16.48;6.90;;;;;;;;;;4988653;28;20034;-69
2022/08/31 08:58:08;;;;;;;14.30;6.78;;;;;;;;;;4988761;28;20030;-69
2022/08/31 09:00:34;;;;;;;13.13;6.80;;;;;;;;;;4988156;28;20456;-69
2022/08/31 09:03:23;;;;;;;18.38;6.95;;;;;;;;;;4988407;28;20061;-70
2022/08/31 09:05:54;;;;;;;13.45;6.45;;;;;;;;;;5004127;28;20378;-70
2022/08/31 09:08:47;;;;;;;10.70;5.95;;;;;;;;;;5007817;28;20034;-69
2022/08/31 09:11:34;;;;;;;10.95;5.97;;;;;;;;;;4994273;28;20038;-69
2022/08/31 09:14:06;;;;;;;11.80;6.03;;;;;;;;;;5010773;28;20026;-69
2022/08/31 09:16:47;;;;;;;16.95;7.00;;;;;;;;;;5007298;28;20026;-69
2022/08/31 09:19:16;;;;;;;13.15;6.60;;;;;;;;;;5003859;28;20117;-69
2022/08/31 09:21:48;;;;;;;16.63;6.75;;;;;;;;;;4987940;28;20402;-69
2022/08/31 09:24:21;;;;;;;15.23;6.15;;;;;;;;;;5003651;28;20538;-69
2022/08/31 09:27:01;;;;;;;14.35;5.85;;;;;;;;;;5007574;28;20026;-69
2022/08/31 09:29:29;;;;;;;;;;;;;;;;;;5007961;28;20034;-69
2022/08/31 09:32:06;;;;;;;12.23;5.45;;;;;;;;;;5007437;28;19982;-69
2022/08/31 09:34:36;;;;;;;14.45;5.50;;;;;;;;;;5007446;28;20025;-69
2022/08/31 09:37:16;;;;;;;15.77;6.00;;;;;;;;;;5007451;28;20082;-69
2022/08/31 09:39:49;;;;;;;;;;;;;;;;;;5007866;28;20776;-69
2022/08/31 09:42:30;;;;;;;13.95;5.82;;;;;;;;;;5007360;28;19914;-69
2022/08/31 09:45:02;;;;;;;12.60;6.32;;;;;;;;;;5008255;28;20406;-69
2022/08/31 09:47:47;;;;;;;10.80;5.68;;;;;;;;;;5007603;28;20084;-69
2022/08/31 09:50:29;;;;;;;10.02;5.85;;;;;;;;;;5009582;28;20022;-69
2022/08/31 09:56:20;;;;;;;9.85;5.68;;;;;;;;;;4976813;28;20582;-69
2022/08/31 09:58:50;;;;;;;11.35;5.25;;;;;;;;;;5009808;28;20618;-69
2022/08/31 10:01:24;;;;;;;12.60;5.03;;;;;;;;;;5007105;28;20057;-68
2022/08/31 10:04:07;;;;;;;12.82;5.80;;;;;;;;;;5008419;28;20033;-69
2022/08/31 10:06:44;;;;;;;12.15;5.50;;;;;;;;;;4988868;28;20053;-69
2022/08/31 10:09:20;;;;;;;9.85;5.57;;;;;;;;;;4987765;28;20037;-68
2022/08/31 10:11:47;;;;;;;12.82;5.85;;;;;;;;;;4987258;28;20027;-69
2022/08/31 10:14:21;;;;;;;10.60;5.50;;;;;;;;;;4987366;28;20170;-69
2022/08/31 10:16:56;;;;;;;12.48;5.30;;;;;;;;;;4987585;28;20033;-69
2022/08/31 10:19:41;;;;;;;14.82;6.15;;;;;;;;;;4987472;28;20030;-70
2022/08/31 10:22:21;;;;;;;14.02;5.40;;;;;;;;;;4987394;28;20531;-69
2022/08/31 10:24:51;;;;;;;;;;;;;;;;;;4987787;28;20592;-69
2022/08/31 10:27:16;;;;;;;14.73;5.22;;;;;;;;;;4987671;28;19913;-69
2022/08/31 10:30:05;;;;;;;13.18;5.18;;;;;;;;;;4992469;28;20226;-69
2022/08/31 10:33:06;;;;;;;8.82;4.88;;;;;;;;;;4990184;28;20072;-69
2022/08/31 10:35:42;;;;;;;10.60;5.20;;;;;;;;;;4992594;28;20054;-68
2022/08/31 10:38:33;;;;;;;12.40;4.90;;;;;;;;;;5010939;28;20158;-69
2022/08/31 10:41:15;;;;;;;11.15;4.72;;;;;;;;;;5010728;28;20366;-69
2022/08/31 10:44:07;;;;;;;13.13;4.95;;;;;;;;;;5007733;28;20069;-68
2022/08/31 10:46:34;;;;;;;10.15;4.45;;;;;;;;;;5007745;28;20394;-69
2022/08/31 10:49:02;;;;;;;11.13;4.53;;;;;;;;;;5009992;28;20072;-70
2022/08/31 10:51:49;;;;;;;10.48;4.93;;;;;;;;;;5009750;28;20110;-73
2022/08/31 10:54:23;;;;;;;8.55;4.63;;;;;;;;;;5012723;28;20033;-68
2022/08/31 10:57:15;;;;;;;10.55;4.63;;;;;;;;;;5010874;28;20034;-69
2022/08/31 10:59:56;;;;;;;6.85;4.20;;;;;;;;;;5009707;28;20072;-69
2022/08/31 11:02:36;;;;;;;12.82;4.55;;;;;;;;;;5009511;28;20041;-69
2022/08/31 11:05:11;;;;;;;;;;;;;;;;;;5010438;28;20030;-70
2022/08/31 11:07:52;;;;;;;7.90;4.20;;;;;;;;;;5009735;28;20296;-69
2022/08/31 11:10:46;;;;;;;9.50;4.10;;;;;;;;;;4993297;28;20034;-68
2022/08/31 11:13:24;;;;;;;10.07;4.43;;;;;;;;;;5011231;28;20031;-69
2022/08/31 11:16:16;;;;;;;9.48;4.43;;;;;;;;;;5009822;28;20373;-69
2022/08/31 11:18:42;;;;;;;11.70;4.47;;;;;;;;;;5011779;28;20026;-69
2022/08/31 11:21:49;;;;;;;9.25;4.38;;;;;;;;;;5009861;28;20076;-69
2022/08/31 11:24:33;;;;;;;8.10;4.38;;;;;;;;;;5008039;28;20065;-69
2022/08/31 11:27:22;;;;;;;10.05;3.92;;;;;;;;;;5009575;28;20022;-69
2022/08/31 11:29:55;;;;;;;8.73;3.90;;;;;;;;;;5009465;28;20022;-70
2022/08/31 11:32:33;;;;;;;9.27;4.05;;;;;;;;;;5007286;28;20655;-70
2022/08/31 11:35:08;;;;;;;10.23;4.30;;;;;;;;;;5007573;28;20041;-69
2022/08/31 11:37:49;;;;;;;9.60;4.60;;;;;;;;;;5007504;28;20083;-70
2022/08/31 11:40:40;;;;;;;12.20;4.85;;;;;;;;;;5007476;28;20022;-68
2022/08/31 11:43:05;;;;;;;;;;;;;;;;;;5007453;28;20041;-70
2022/08/31 11:45:34;;;;;;;11.23;4.82;;;;;;;;;;5007580;28;20048;-68
2022/08/31 11:47:59;;;;;;;9.70;5.07;;;;;;;;;;5008223;28;20030;-68
2022/08/31 11:50:56;;;;;;;10.43;5.13;;;;;;;;;;5009044;28;20056;-68
2022/08/31 11:53:27;;;;;;;14.32;5.28;;;;;;;;;;5008870;28;20037;-68
2022/08/31 11:55:58;;;;;;;12.32;5.03;;;;;;;;;;5008754;28;20030;-70
2022/08/31 11:58:53;;;;;;;11.20;5.05;;;;;;;;;;5008720;28;20026;-68
2022/08/31 12:01:19;;;;;;;9.25;4.80;;;;;;;;;;5005804;28;20041;-68
2022/08/31 12:03:51;;;;;;;11.13;5.53;;;;;;;;;;5009028;28;20087;-68
2022/08/31 12:06:32;;;;;;;10.00;4.88;;;;;;;;;;5008994;28;20033;-69
2022/08/31 12:09:01;;;;;;;15.55;5.50;;;;;;;;;;5008820;28;20113;-71
2022/08/31 12:12:06;;;;;;;12.07;5.10;;;;;;;;;;5013538;28;20029;-70
2022/08/31 12:14:48;;;;;;;11.45;5.18;;;;;;;;;;5008681;28;20034;-68
2022/08/31 12:17:29;;;;;;;12.15;5.30;;;;;;;;;;5008479;28;20113;-68
2022/08/31 12:20:06;;;;;;;16.48;5.40;;;;;;;;;;5008124;28;20607;-67
2022/08/31 12:26:06;;;;;;;13.05;5.60;;;;;;;;;;5007282;28;20542;-71
2022/08/31 12:28:40;;;;;;;13.50;5.45;;;;;;;;;;5008449;28;20028;-74
2022/08/31 12:31:16;;;;;;;11.52;5.07;;;;;;;;;;5008269;28;20662;-70
2022/08/31 12:34:03;;;;;;;13.15;5.43;;;;;;;;;;5008411;28;20022;-72
2022/08/31 12:36:32;;;;;;;13.70;5.53;;;;;;;;;;5008485;28;20101;-69
2022/08/31 12:39:06;;;;;;;17.30;9.00;;;;;;;;;;5008492;28;20045;-73
2022/08/31 12:41:32;;;;;;;16.42;6.35;;;;;;;;;;5008211;28;20686;-71
2022/08/31 12:43:58;;;;;;;13.60;5.28;;;;;;;;;;5008122;28;20129;-67
2022/08/31 12:46:29;;;;;;;9.48;5.57;;;;;;;;;;5008274;28;20248;-70
2022/08/31 12:49:00;;;;;;;11.57;5.32;;;;;;;;;;5008170;28;20030;-67
2022/08/31 12:51:37;;;;;;;12.95;4.80;;;;;;;;;;5007319;28;20589;-70
2022/08/31 12:54:24;;;;;;;13.95;5.13;;;;;;;;;;5008028;28;20030;-71
2022/08/31 12:57:08;;;;;;;11.60;5.03;;;;;;;;;;5007936;28;20026;-70
2022/08/31 12:59:39;;;;;;;10.27;4.57;;;;;;;;;;4990510;28;20098;-74
2022/08/31 13:02:10;;;;;;;9.65;4.60;;;;;;;;;;5007963;28;20030;-69
2022/08/31 13:04:40;;;;;;;10.77;4.70;;;;;;;;;;5007978;28;20022;-69
2022/08/31 13:07:28;;;;;;;10.88;4.68;;;;;;;;;;5007750;28;20105;-68
2022/08/31 13:10:20;;;;;;;13.65;5.20;;;;;;;;;;5007921;28;20026;-69
2022/08/31 13:12:51;;;;;;;9.43;4.78;;;;;;;;;;5007452;28;20081;-68
2022/08/31 13:15:30;;;;;;;9.25;4.72;;;;;;;;;;5007975;28;20032;-70
2022/08/31 13:18:00;;;;;;;12.32;5.00;;;;;;;;;;5007896;28;20546;-68
2022/08/31 13:20:31;;;;;;;10.07;5.00;;;;;;;;;;4990062;28;20056;-69
2022/08/31 13:23:01;;;;;;;9.50;4.95;;;;;;;;;;5007439;28;20200;-69
2022/08/31 13:25:35;;;;;;;10.23;5.10;;;;;;;;;;5007420;28;20105;-69
2022/08/31 13:28:24;;;;;;;9.88;5.03;;;;;;;;;;5007646;28;20458;-68
2022/08/31 13:31:00;;;;;;;12.93;4.65;;;;;;;;;;5007309;28;20121;-69
2022/08/31 13:33:33;;;;;;;13.57;5.22;;;;;;;;;;5006854;28;20036;-68
2022/08/31 13:36:08;;;;;;;8.70;4.97;;;;;;;;;;5009619;28;20029;-70
2022/08/31 13:38:42;;;;;;;8.73;4.90;;;;;;;;;;5007337;28;20446;-70
2022/08/31 13:41:29;;;;;;;10.18;5.13;;;;;;;;;;5009169;28;20026;-68
2022/08/31 13:43:58;;;;;;;10.45;4.80;;;;;;;;;;5007513;28;20707;-68
2022/08/31 13:46:37;;;;;;;10.85;5.13;;;;;;;;;;5007278;28;20026;-68
2022/08/31 13:49:06;;;;;;;12.52;5.35;;;;;;;;;;5007704;28;20482;-68
2022/08/31 13:51:39;;;;;;;8.70;4.90;;;;;;;;;;5008916;28;20030;-68
2022/08/31 13:54:13;;;;;;;11.63;4.85;;;;;;;;;;5012053;28;20056;-70
2022/08/31 13:56:55;;;;;;;11.38;4.82;;;;;;;;;;4989929;28;20482;-68
2022/08/31 13:59:23;;;;;;;10.63;5.63;;;;;;;;;;5007001;28;20146;-68
2022/08/31 14:01:49;;;;;;;12.63;5.13;;;;;;;;;;5006863;28;20150;-68
2022/08/31 14:04:59;;;;;;;11.07;5.30;;;;;;;;;;5009372;28;20109;-69
2022/08/31 14:07:42;;;;;;;11.45;5.05;;;;;;;;;;5011144;28;20718;-68
2022/08/31 14:10:26;;;;;;;14.38;5.13;;;;;;;;;;4989200;28;20486;-68
2022/08/31 14:13:02;;;;;;;11.95;5.40;;;;;;;;;;4990115;28;20158;-68
2022/08/31 14:15:45;;;;;;;15.25;5.10;;;;;;;;;;4991382;28;20014;-68
2022/08/31 14:18:26;;;;;;;11.60;5.00;;;;;;;;;;4990459;28;20030;-69
2022/08/31 14:21:09;;;;;;;12.02;4.85;;;;;;;;;;4990723;28;20035;-68
2022/08/31 14:23:36;;;;;;;6.93;4.03;;;;;;;;;;4991254;28;20026;-68
2022/08/31 14:26:04;;;;;;;9.88;4.53;;;;;;;;;;4991591;28;20038;-68
2022/08/31 14:28:41;;;;;;;10.45;4.70;;;;;;;;;;4991141;28;20035;-68
2022/08/31 14:31:25;;;;;;;10.05;4.25;;;;;;;;;;4995201;28;20479;-69
2022/08/31 14:34:08;;;;;;;8.23;4.40;;;;;;;;;;5009394;28;20030;-69
2022/08/31 14:36:44;;;;;;;9.50;4.45;;;;;;;;;;5009432;28;20120;-69
2022/08/31 14:39:10;;;;;;;9.70;4.60;;;;;;;;;;5009900;28;20037;-69
2022/08/31 14:41:35;;;;;;;9.50;4.53;;;;;;;;;;5010166;28;20116;-70
2022/08/31 14:44:08;;;;;;;10.80;4.25;;;;;;;;;;5009961;28;20054;-70
2022/08/31 14:46:36;;;;;;;10.15;4.55;;;;;;;;;;5010366;28;20046;-69
2022/08/31 14:49:04;;;;;;;8.20;4.60;;;;;;;;;;5009917;28;20477;-68
2022/08/31 14:51:30;;;;;;;15.50;5.00;;;;;;;;;;5007767;28;20549;-69
2022/08/31 14:53:55;;;;;;;11.07;4.88;;;;;;;;;;5008168;28;20022;-70
2022/08/31 14:56:29;;;;;;;9.15;4.45;;;;;;;;;;5009531;28;20594;-70
2022/08/31 14:58:56;;;;;;;10.35;4.57;;;;;;;;;;5009774;28;20034;-70
2022/08/31 15:01:21;;;;;;;10.73;4.70;;;;;;;;;;4992127;28;20018;-69
2022/08/31 15:03:47;;;;;;;9.10;4.47;;;;;;;;;;5009555;28;20030;-70
2022/08/31 15:06:18;;;;;;;10.93;4.93;;;;;;;;;;5009922;28;20018;-69
2022/08/31 15:08:44;;;;;;;9.50;4.78;;;;;;;;;;5009682;28;20025;-70
2022/08/31 15:11:09;;;;;;;7.93;4.45;;;;;;;;;;5009551;28;20024;-70
2022/08/31 15:13:38;;;;;;;10.05;4.55;;;;;;;;;;5008986;28;20018;-69
2022/08/31 15:16:05;;;;;;;8.23;4.30;;;;;;;;;;5009828;28;20018;-69